sensor_id;sensor_type;location;lat;lon;timestamp;temperature;humidity
33149;DHT22;19506;51.040;3.856;2023-03-31T00:00:19;17.70;99.90
33149;DHT22;19506;51.040;3.856;2023-03-31T00:02:44;17.70;99.90
33149;DHT22;19506;51.040;3.856;2023-03-31T00:05:10;17.70;99.90
33149;DHT22;19506;51.040;3.856;2023-03-31T00:07:36;17.70;99.90
33149;DHT22;19506;51.040;3.856;2023-03-31T00:10:05;17.70;99.90
33149;DHT22;19506;51.040;3.856;2023-03-31T00:12:32;17.70;99.90
33149;DHT22;19506;51.040;3.856;2023-03-31T00:14:58;17.70;99.90
33149;DHT22;19506;51.040;3.856;2023-03-31T00:17:23;17.70;99.90
33149;DHT22;19506;51.040;3.856;2023-03-31T00:19:49;17.70;99.90
33149;DHT22;19506;51.040;3.856;2023-03-31T00:22:15;17.70;99.90
33149;DHT22;19506;51.040;3.856;2023-03-31T00:24:47;17.70;99.90
33149;DHT22;19506;51.040;3.856;2023-03-31T00:27:12;17.70;99.90
33149;DHT22;19506;51.040;3.856;2023-03-31T00:29:38;17.70;99.90
33149;DHT22;19506;51.040;3.856;2023-03-31T00:32:08;17.60;99.90
33149;DHT22;19506;51.040;3.856;2023-03-31T00:34:33;17.70;99.90
33149;DHT22;19506;51.040;3.856;2023-03-31T00:36:59;17.70;99.90
33149;DHT22;19506;51.040;3.856;2023-03-31T00:39:27;17.70;99.90
33149;DHT22;19506;51.040;3.856;2023-03-31T00:41:57;17.70;99.90
33149;DHT22;19506;51.040;3.856;2023-03-31T00:44:23;17.70;99.90
33149;DHT22;19506;51.040;3.856;2023-03-31T00:51:52;17.60;99.90
33149;DHT22;19506;51.040;3.856;2023-03-31T00:54:18;17.60;99.90
33149;DHT22;19506;51.040;3.856;2023-03-31T00:56:46;17.60;99.90
33149;DHT22;19506;51.040;3.856;2023-03-31T00:59:13;17.60;99.90
33149;DHT22;19506;51.040;3.856;2023-03-31T01:01:41;17.60;99.90
33149;DHT22;19506;51.040;3.856;2023-03-31T01:04:11;17.60;99.90
33149;DHT22;19506;51.040;3.856;2023-03-31T01:06:43;17.60;99.90
33149;DHT22;19506;51.040;3.856;2023-03-31T01:09:12;17.60;99.90
33149;DHT22;19506;51.040;3.856;2023-03-31T01:11:39;17.60;99.90
33149;DHT22;19506;51.040;3.856;2023-03-31T01:14:05;17.60;99.90
33149;DHT22;19506;51.040;3.856;2023-03-31T01:16:31;17.50;99.90
33149;DHT22;19506;51.040;3.856;2023-03-31T01:18:58;17.60;99.90
33149;DHT22;19506;51.040;3.856;2023-03-31T01:24:27;17.60;99.90
33149;DHT22;19506;51.040;3.856;2023-03-31T01:30:15;17.60;99.90
33149;DHT22;19506;51.040;3.856;2023-03-31T01:35:51;17.60;99.90
33149;DHT22;19506;51.040;3.856;2023-03-31T01:47:16;17.60;99.90
33149;DHT22;19506;51.040;3.856;2023-03-31T01:58:37;17.50;99.90
33149;DHT22;19506;51.040;3.856;2023-03-31T02:01:24;17.50;99.90
33149;DHT22;19506;51.040;3.856;2023-03-31T02:03:53;17.50;99.90
33149;DHT22;19506;51.040;3.856;2023-03-31T02:06:24;17.50;99.90
33149;DHT22;19506;51.040;3.856;2023-03-31T02:08:56;17.50;99.90
33149;DHT22;19506;51.040;3.856;2023-03-31T02:11:23;17.50;99.90
33149;DHT22;19506;51.040;3.856;2023-03-31T02:13:52;17.50;99.90
33149;DHT22;19506;51.040;3.856;2023-03-31T02:16:23;17.50;99.90
33149;DHT22;19506;51.040;3.856;2023-03-31T02:18:53;17.50;99.90
33149;DHT22;19506;51.040;3.856;2023-03-31T02:21:19;17.50;99.90
33149;DHT22;19506;51.040;3.856;2023-03-31T02:23:48;17.50;99.90
33149;DHT22;19506;51.040;3.856;2023-03-31T02:26:19;17.50;99.90
33149;DHT22;19506;51.040;3.856;2023-03-31T02:28:48;17.50;99.90
33149;DHT22;19506;51.040;3.856;2023-03-31T02:31:25;17.40;99.90
33149;DHT22;19506;51.040;3.856;2023-03-31T02:33:52;17.50;99.90
33149;DHT22;19506;51.040;3.856;2023-03-31T02:36:18;17.50;99.90
33149;DHT22;19506;51.040;3.856;2023-03-31T02:38:56;17.50;99.90
33149;DHT22;19506;51.040;3.856;2023-03-31T02:41:22;17.50;99.90
33149;DHT22;19506;51.040;3.856;2023-03-31T02:43:48;17.50;99.90
33149;DHT22;19506;51.040;3.856;2023-03-31T02:46:14;17.50;99.90
33149;DHT22;19506;51.040;3.856;2023-03-31T02:48:44;17.50;99.90
33149;DHT22;19506;51.040;3.856;2023-03-31T03:02:39;17.40;99.90
33149;DHT22;19506;51.040;3.856;2023-03-31T03:10:17;17.40;99.90
33149;DHT22;19506;51.040;3.856;2023-03-31T03:13:13;17.40;99.90
33149;DHT22;19506;51.040;3.856;2023-03-31T03:15:55;17.40;99.90
33149;DHT22;19506;51.040;3.856;2023-03-31T03:18:23;17.30;99.90
33149;DHT22;19506;51.040;3.856;2023-03-31T03:20:48;17.30;99.90
33149;DHT22;19506;51.040;3.856;2023-03-31T03:23:15;17.40;99.90
33149;DHT22;19506;51.040;3.856;2023-03-31T03:25:42;17.40;99.90
33149;DHT22;19506;51.040;3.856;2023-03-31T03:28:08;17.30;99.90
33149;DHT22;19506;51.040;3.856;2023-03-31T03:30:34;17.30;99.90
33149;DHT22;19506;51.040;3.856;2023-03-31T03:32:59;17.30;99.90
33149;DHT22;19506;51.040;3.856;2023-03-31T03:35:25;17.40;99.90
33149;DHT22;19506;51.040;3.856;2023-03-31T03:37:51;17.30;99.90
33149;DHT22;19506;51.040;3.856;2023-03-31T03:40:17;17.40;99.90
33149;DHT22;19506;51.040;3.856;2023-03-31T03:42:42;17.40;99.90
33149;DHT22;19506;51.040;3.856;2023-03-31T03:45:08;17.30;99.90
33149;DHT22;19506;51.040;3.856;2023-03-31T03:47:35;17.30;99.90
33149;DHT22;19506;51.040;3.856;2023-03-31T03:50:01;17.30;99.90
33149;DHT22;19506;51.040;3.856;2023-03-31T03:52:27;17.30;99.90
33149;DHT22;19506;51.040;3.856;2023-03-31T03:54:52;17.30;99.90
33149;DHT22;19506;51.040;3.856;2023-03-31T03:57:18;17.30;99.90
33149;DHT22;19506;51.040;3.856;2023-03-31T03:59:43;17.30;99.90
33149;DHT22;19506;51.040;3.856;2023-03-31T04:02:09;17.30;99.90
33149;DHT22;19506;51.040;3.856;2023-03-31T04:04:35;17.30;99.90
33149;DHT22;19506;51.040;3.856;2023-03-31T04:07:00;17.30;99.90
33149;DHT22;19506;51.040;3.856;2023-03-31T04:09:26;17.30;99.90
33149;DHT22;19506;51.040;3.856;2023-03-31T04:11:53;17.30;99.90
33149;DHT22;19506;51.040;3.856;2023-03-31T04:14:18;17.30;99.90
33149;DHT22;19506;51.040;3.856;2023-03-31T04:16:44;17.30;99.90
33149;DHT22;19506;51.040;3.856;2023-03-31T04:19:12;17.30;99.90
33149;DHT22;19506;51.040;3.856;2023-03-31T04:21:38;17.30;99.90
33149;DHT22;19506;51.040;3.856;2023-03-31T04:24:11;17.30;99.90
33149;DHT22;19506;51.040;3.856;2023-03-31T04:26:41;17.30;99.90
33149;DHT22;19506;51.040;3.856;2023-03-31T04:29:13;17.30;99.90
33149;DHT22;19506;51.040;3.856;2023-03-31T04:31:40;17.30;99.90
33149;DHT22;19506;51.040;3.856;2023-03-31T04:34:12;17.30;99.90
33149;DHT22;19506;51.040;3.856;2023-03-31T04:36:43;17.30;99.90
33149;DHT22;19506;51.040;3.856;2023-03-31T04:39:15;17.30;99.90
33149;DHT22;19506;51.040;3.856;2023-03-31T04:41:41;17.30;99.90
33149;DHT22;19506;51.040;3.856;2023-03-31T04:44:07;17.30;99.90
33149;DHT22;19506;51.040;3.856;2023-03-31T04:46:33;17.30;99.90
33149;DHT22;19506;51.040;3.856;2023-03-31T04:49:00;17.30;99.90
33149;DHT22;19506;51.040;3.856;2023-03-31T04:51:26;17.30;99.90
33149;DHT22;19506;51.040;3.856;2023-03-31T04:53:51;17.30;99.90
33149;DHT22;19506;51.040;3.856;2023-03-31T04:56:17;17.30;99.90
33149;DHT22;19506;51.040;3.856;2023-03-31T04:58:43;17.30;99.90
33149;DHT22;19506;51.040;3.856;2023-03-31T05:01:09;17.30;99.90
33149;DHT22;19506;51.040;3.856;2023-03-31T05:03:38;17.30;99.90
33149;DHT22;19506;51.040;3.856;2023-03-31T05:06:04;17.30;99.90
33149;DHT22;19506;51.040;3.856;2023-03-31T05:08:29;17.30;99.90
33149;DHT22;19506;51.040;3.856;2023-03-31T05:10:55;17.20;99.90
33149;DHT22;19506;51.040;3.856;2023-03-31T05:13:22;17.20;99.90
33149;DHT22;19506;51.040;3.856;2023-03-31T05:15:48;17.20;99.90
33149;DHT22;19506;51.040;3.856;2023-03-31T05:18:16;17.20;99.90
33149;DHT22;19506;51.040;3.856;2023-03-31T05:20:42;17.20;99.90
33149;DHT22;19506;51.040;3.856;2023-03-31T05:23:08;17.20;99.90
33149;DHT22;19506;51.040;3.856;2023-03-31T05:25:33;17.20;99.90
33149;DHT22;19506;51.040;3.856;2023-03-31T05:27:59;17.20;99.90
33149;DHT22;19506;51.040;3.856;2023-03-31T05:30:26;17.20;99.90
33149;DHT22;19506;51.040;3.856;2023-03-31T05:32:52;17.20;99.90
33149;DHT22;19506;51.040;3.856;2023-03-31T05:35:18;17.20;99.90
33149;DHT22;19506;51.040;3.856;2023-03-31T05:37:43;17.20;99.90
33149;DHT22;19506;51.040;3.856;2023-03-31T05:40:09;17.30;99.90
33149;DHT22;19506;51.040;3.856;2023-03-31T05:42:36;17.20;99.90
33149;DHT22;19506;51.040;3.856;2023-03-31T05:45:02;17.20;99.90
33149;DHT22;19506;51.040;3.856;2023-03-31T05:47:28;17.20;99.90
33149;DHT22;19506;51.040;3.856;2023-03-31T05:49:54;17.20;99.90
33149;DHT22;19506;51.040;3.856;2023-03-31T05:52:20;17.20;99.90
33149;DHT22;19506;51.040;3.856;2023-03-31T05:54:46;17.20;99.90
33149;DHT22;19506;51.040;3.856;2023-03-31T05:57:12;17.20;99.90
33149;DHT22;19506;51.040;3.856;2023-03-31T05:59:37;17.20;99.90
33149;DHT22;19506;51.040;3.856;2023-03-31T06:02:05;17.20;99.90
33149;DHT22;19506;51.040;3.856;2023-03-31T06:04:31;17.20;99.90
33149;DHT22;19506;51.040;3.856;2023-03-31T06:06:57;17.20;99.90
33149;DHT22;19506;51.040;3.856;2023-03-31T06:09:23;17.20;99.90
33149;DHT22;19506;51.040;3.856;2023-03-31T06:11:50;17.20;99.90
33149;DHT22;19506;51.040;3.856;2023-03-31T06:14:15;17.20;99.90
33149;DHT22;19506;51.040;3.856;2023-03-31T06:16:41;17.20;99.90
33149;DHT22;19506;51.040;3.856;2023-03-31T06:19:07;17.20;99.90
33149;DHT22;19506;51.040;3.856;2023-03-31T06:21:32;17.20;99.90
33149;DHT22;19506;51.040;3.856;2023-03-31T06:23:58;17.20;99.90
33149;DHT22;19506;51.040;3.856;2023-03-31T06:26:25;17.20;99.90
33149;DHT22;19506;51.040;3.856;2023-03-31T06:28:51;17.20;99.90
33149;DHT22;19506;51.040;3.856;2023-03-31T06:31:21;17.20;99.90
33149;DHT22;19506;51.040;3.856;2023-03-31T06:33:48;17.20;99.90
33149;DHT22;19506;51.040;3.856;2023-03-31T06:36:16;17.20;99.90
33149;DHT22;19506;51.040;3.856;2023-03-31T06:38:42;17.20;99.90
33149;DHT22;19506;51.040;3.856;2023-03-31T06:41:11;17.20;99.90
33149;DHT22;19506;51.040;3.856;2023-03-31T06:43:37;17.20;99.90
33149;DHT22;19506;51.040;3.856;2023-03-31T06:46:03;17.20;99.90
33149;DHT22;19506;51.040;3.856;2023-03-31T06:48:28;17.20;99.90
33149;DHT22;19506;51.040;3.856;2023-03-31T06:50:55;17.20;99.90
33149;DHT22;19506;51.040;3.856;2023-03-31T06:53:21;17.20;99.90
33149;DHT22;19506;51.040;3.856;2023-03-31T06:55:47;17.20;99.90
33149;DHT22;19506;51.040;3.856;2023-03-31T06:58:12;17.20;99.90
33149;DHT22;19506;51.040;3.856;2023-03-31T07:00:38;17.20;99.90
33149;DHT22;19506;51.040;3.856;2023-03-31T07:03:05;17.20;99.90
33149;DHT22;19506;51.040;3.856;2023-03-31T07:05:33;17.20;99.90
33149;DHT22;19506;51.040;3.856;2023-03-31T07:07:59;17.20;99.90
33149;DHT22;19506;51.040;3.856;2023-03-31T07:10:26;17.20;99.90
33149;DHT22;19506;51.040;3.856;2023-03-31T07:12:52;17.20;99.90
33149;DHT22;19506;51.040;3.856;2023-03-31T07:15:18;17.20;99.90
33149;DHT22;19506;51.040;3.856;2023-03-31T07:17:44;17.20;99.90
33149;DHT22;19506;51.040;3.856;2023-03-31T07:20:10;17.20;99.90
33149;DHT22;19506;51.040;3.856;2023-03-31T07:22:40;17.20;99.90
33149;DHT22;19506;51.040;3.856;2023-03-31T07:25:06;17.20;99.90
33149;DHT22;19506;51.040;3.856;2023-03-31T07:27:32;17.20;99.90
33149;DHT22;19506;51.040;3.856;2023-03-31T07:29:58;17.20;99.90
33149;DHT22;19506;51.040;3.856;2023-03-31T07:32:23;17.20;99.90
33149;DHT22;19506;51.040;3.856;2023-03-31T07:34:49;17.20;99.90
33149;DHT22;19506;51.040;3.856;2023-03-31T07:37:15;17.20;99.90
33149;DHT22;19506;51.040;3.856;2023-03-31T07:39:41;17.20;99.90
33149;DHT22;19506;51.040;3.856;2023-03-31T07:42:06;17.20;99.90
33149;DHT22;19506;51.040;3.856;2023-03-31T07:44:36;17.30;99.90
33149;DHT22;19506;51.040;3.856;2023-03-31T07:47:02;17.30;99.90
33149;DHT22;19506;51.040;3.856;2023-03-31T07:49:31;17.20;99.90
33149;DHT22;19506;51.040;3.856;2023-03-31T07:51:56;17.20;99.90
33149;DHT22;19506;51.040;3.856;2023-03-31T07:54:22;17.30;99.90
33149;DHT22;19506;51.040;3.856;2023-03-31T07:56:48;17.20;99.90
33149;DHT22;19506;51.040;3.856;2023-03-31T07:59:13;17.30;99.90
33149;DHT22;19506;51.040;3.856;2023-03-31T08:01:39;17.30;99.90
33149;DHT22;19506;51.040;3.856;2023-03-31T08:04:05;17.30;99.90
33149;DHT22;19506;51.040;3.856;2023-03-31T08:06:31;17.30;99.90
33149;DHT22;19506;51.040;3.856;2023-03-31T08:08:57;17.30;99.90
33149;DHT22;19506;51.040;3.856;2023-03-31T08:11:23;17.30;99.90
33149;DHT22;19506;51.040;3.856;2023-03-31T08:13:49;17.30;99.90
33149;DHT22;19506;51.040;3.856;2023-03-31T08:16:15;17.30;99.90
33149;DHT22;19506;51.040;3.856;2023-03-31T08:18:41;17.30;99.90
33149;DHT22;19506;51.040;3.856;2023-03-31T08:21:06;17.30;99.90
33149;DHT22;19506;51.040;3.856;2023-03-31T08:23:34;17.30;99.90
33149;DHT22;19506;51.040;3.856;2023-03-31T08:26:26;17.30;99.90
33149;DHT22;19506;51.040;3.856;2023-03-31T08:28:52;17.20;99.90
33149;DHT22;19506;51.040;3.856;2023-03-31T08:31:19;17.30;99.90
33149;DHT22;19506;51.040;3.856;2023-03-31T08:33:46;17.30;99.90
33149;DHT22;19506;51.040;3.856;2023-03-31T08:36:12;17.30;99.90
33149;DHT22;19506;51.040;3.856;2023-03-31T08:38:39;17.30;99.90
33149;DHT22;19506;51.040;3.856;2023-03-31T08:44:19;17.30;99.90
33149;DHT22;19506;51.040;3.856;2023-03-31T08:46:45;17.40;99.90
33149;DHT22;19506;51.040;3.856;2023-03-31T08:49:17;17.40;99.90
33149;DHT22;19506;51.040;3.856;2023-03-31T08:51:50;17.40;99.90
33149;DHT22;19506;51.040;3.856;2023-03-31T08:56:47;17.40;99.90
33149;DHT22;19506;51.040;3.856;2023-03-31T08:59:29;17.40;99.90
33149;DHT22;19506;51.040;3.856;2023-03-31T09:02:15;17.40;99.90
33149;DHT22;19506;51.040;3.856;2023-03-31T09:05:17;17.40;99.90
33149;DHT22;19506;51.040;3.856;2023-03-31T09:09:01;17.30;99.90
33149;DHT22;19506;51.040;3.856;2023-03-31T09:11:13;17.30;99.90
33149;DHT22;19506;51.040;3.856;2023-03-31T09:14:00;17.30;99.90
33149;DHT22;19506;51.040;3.856;2023-03-31T09:17:12;17.30;99.90
33149;DHT22;19506;51.040;3.856;2023-03-31T09:19:39;17.30;99.90
33149;DHT22;19506;51.040;3.856;2023-03-31T09:22:13;17.30;99.90
33149;DHT22;19506;51.040;3.856;2023-03-31T09:27:17;17.30;99.90
33149;DHT22;19506;51.040;3.856;2023-03-31T09:29:57;17.30;99.90
33149;DHT22;19506;51.040;3.856;2023-03-31T09:32:29;17.30;99.90
33149;DHT22;19506;51.040;3.856;2023-03-31T09:34:59;17.30;99.90
33149;DHT22;19506;51.040;3.856;2023-03-31T09:37:29;17.30;99.90
33149;DHT22;19506;51.040;3.856;2023-03-31T09:40:03;17.30;99.90
33149;DHT22;19506;51.040;3.856;2023-03-31T09:42:33;17.30;99.90
33149;DHT22;19506;51.040;3.856;2023-03-31T09:45:00;17.30;99.90
33149;DHT22;19506;51.040;3.856;2023-03-31T09:47:32;17.30;99.90
33149;DHT22;19506;51.040;3.856;2023-03-31T09:50:04;17.30;99.90
33149;DHT22;19506;51.040;3.856;2023-03-31T09:52:33;17.30;99.90
33149;DHT22;19506;51.040;3.856;2023-03-31T09:55:05;17.30;99.90
33149;DHT22;19506;51.040;3.856;2023-03-31T09:57:38;17.30;99.90
33149;DHT22;19506;51.040;3.856;2023-03-31T10:00:21;17.30;99.90
33149;DHT22;19506;51.040;3.856;2023-03-31T10:02:48;17.40;99.90
33149;DHT22;19506;51.040;3.856;2023-03-31T10:05:37;17.40;99.90
33149;DHT22;19506;51.040;3.856;2023-03-31T10:10:44;17.30;99.90
33149;DHT22;19506;51.040;3.856;2023-03-31T10:13:18;17.30;99.90
33149;DHT22;19506;51.040;3.856;2023-03-31T10:15:44;17.30;99.90
33149;DHT22;19506;51.040;3.856;2023-03-31T10:18:14;17.30;99.90
33149;DHT22;19506;51.040;3.856;2023-03-31T10:20:50;17.40;99.90
33149;DHT22;19506;51.040;3.856;2023-03-31T10:23:26;17.40;99.90
33149;DHT22;19506;51.040;3.856;2023-03-31T10:25:53;17.40;99.90
33149;DHT22;19506;51.040;3.856;2023-03-31T10:28:20;17.40;99.90
33149;DHT22;19506;51.040;3.856;2023-03-31T10:30:57;17.40;99.90
33149;DHT22;19506;51.040;3.856;2023-03-31T10:33:30;17.40;99.90
33149;DHT22;19506;51.040;3.856;2023-03-31T10:36:01;17.40;99.90
33149;DHT22;19506;51.040;3.856;2023-03-31T10:38:36;17.40;99.90
33149;DHT22;19506;51.040;3.856;2023-03-31T10:41:02;17.30;99.90
33149;DHT22;19506;51.040;3.856;2023-03-31T10:43:34;17.40;99.90
33149;DHT22;19506;51.040;3.856;2023-03-31T10:46:01;17.40;99.90
33149;DHT22;19506;51.040;3.856;2023-03-31T10:48:34;17.30;99.90
33149;DHT22;19506;51.040;3.856;2023-03-31T10:51:13;17.40;99.90
33149;DHT22;19506;51.040;3.856;2023-03-31T10:53:41;17.40;99.90
33149;DHT22;19506;51.040;3.856;2023-03-31T10:59:37;17.40;99.90
33149;DHT22;19506;51.040;3.856;2023-03-31T11:10:36;17.40;99.90
33149;DHT22;19506;51.040;3.856;2023-03-31T11:13:38;17.40;99.90
33149;DHT22;19506;51.040;3.856;2023-03-31T11:29:57;17.40;99.90
33149;DHT22;19506;51.040;3.856;2023-03-31T11:32:57;17.40;99.90
33149;DHT22;19506;51.040;3.856;2023-03-31T11:41:12;17.30;99.90
33149;DHT22;19506;51.040;3.856;2023-03-31T11:46:14;17.40;99.90
33149;DHT22;19506;51.040;3.856;2023-03-31T11:51:19;17.40;99.90
33149;DHT22;19506;51.040;3.856;2023-03-31T11:53:46;17.40;99.90
33149;DHT22;19506;51.040;3.856;2023-03-31T11:56:14;17.30;99.90
33149;DHT22;19506;51.040;3.856;2023-03-31T11:58:53;17.40;99.90
33149;DHT22;19506;51.040;3.856;2023-03-31T12:01:44;17.40;99.90
33149;DHT22;19506;51.040;3.856;2023-03-31T12:04:50;17.40;99.90
33149;DHT22;19506;51.040;3.856;2023-03-31T12:07:40;17.40;99.90
33149;DHT22;19506;51.040;3.856;2023-03-31T12:10:35;17.50;99.90
33149;DHT22;19506;51.040;3.856;2023-03-31T12:16:36;17.40;99.90
33149;DHT22;19506;51.040;3.856;2023-03-31T12:19:16;17.40;99.90
33149;DHT22;19506;51.040;3.856;2023-03-31T12:21:48;17.40;99.90
33149;DHT22;19506;51.040;3.856;2023-03-31T12:24:15;17.30;99.90
33149;DHT22;19506;51.040;3.856;2023-03-31T12:26:58;17.30;99.90
33149;DHT22;19506;51.040;3.856;2023-03-31T12:29:37;17.30;99.90
33149;DHT22;19506;51.040;3.856;2023-03-31T12:32:15;17.30;99.90
33149;DHT22;19506;51.040;3.856;2023-03-31T12:34:55;17.30;99.90
33149;DHT22;19506;51.040;3.856;2023-03-31T12:40:40;17.50;99.90
33149;DHT22;19506;51.040;3.856;2023-03-31T12:51:06;17.60;99.90
33149;DHT22;19506;51.040;3.856;2023-03-31T12:57:07;17.60;99.90
33149;DHT22;19506;51.040;3.856;2023-03-31T12:59:39;17.50;99.90
33149;DHT22;19506;51.040;3.856;2023-03-31T13:04:36;17.50;99.90
33149;DHT22;19506;51.040;3.856;2023-03-31T13:07:02;17.50;99.90
33149;DHT22;19506;51.040;3.856;2023-03-31T13:09:41;17.50;99.90
33149;DHT22;19506;51.040;3.856;2023-03-31T13:12:18;17.50;99.90
33149;DHT22;19506;51.040;3.856;2023-03-31T13:14:47;17.50;99.90
33149;DHT22;19506;51.040;3.856;2023-03-31T13:17:28;17.50;99.90
33149;DHT22;19506;51.040;3.856;2023-03-31T13:20:13;17.50;99.90
33149;DHT22;19506;51.040;3.856;2023-03-31T13:22:44;17.40;99.90
33149;DHT22;19506;51.040;3.856;2023-03-31T13:33:38;17.40;99.90
33149;DHT22;19506;51.040;3.856;2023-03-31T13:58:37;17.40;99.90
33149;DHT22;19506;51.040;3.856;2023-03-31T14:06:51;17.50;99.90
33149;DHT22;19506;51.040;3.856;2023-03-31T14:11:53;17.40;99.90
33149;DHT22;19506;51.040;3.856;2023-03-31T14:14:19;17.40;99.90
33149;DHT22;19506;51.040;3.856;2023-03-31T14:17:11;17.40;99.90
33149;DHT22;19506;51.040;3.856;2023-03-31T14:20:13;17.30;99.90
33149;DHT22;19506;51.040;3.856;2023-03-31T14:22:55;17.30;99.90
33149;DHT22;19506;51.040;3.856;2023-03-31T14:36:37;17.40;99.90
33149;DHT22;19506;51.040;3.856;2023-03-31T14:39:09;17.50;99.90
33149;DHT22;19506;51.040;3.856;2023-03-31T14:41:36;17.50;99.90
33149;DHT22;19506;51.040;3.856;2023-03-31T14:44:05;17.50;99.90
33149;DHT22;19506;51.040;3.856;2023-03-31T14:46:37;17.50;99.90
33149;DHT22;19506;51.040;3.856;2023-03-31T14:49:28;17.50;99.90
33149;DHT22;19506;51.040;3.856;2023-03-31T14:51:59;17.50;99.90
33149;DHT22;19506;51.040;3.856;2023-03-31T14:54:25;17.60;99.90
33149;DHT22;19506;51.040;3.856;2023-03-31T14:56:56;17.60;99.90
33149;DHT22;19506;51.040;3.856;2023-03-31T14:59:26;17.60;99.90
33149;DHT22;19506;51.040;3.856;2023-03-31T15:01:56;17.70;99.90
33149;DHT22;19506;51.040;3.856;2023-03-31T15:04:25;17.70;99.90
33149;DHT22;19506;51.040;3.856;2023-03-31T15:06:52;17.80;99.90
33149;DHT22;19506;51.040;3.856;2023-03-31T15:09:29;17.80;99.90
33149;DHT22;19506;51.040;3.856;2023-03-31T15:12:00;17.80;99.90
33149;DHT22;19506;51.040;3.856;2023-03-31T15:14:35;17.80;99.90
33149;DHT22;19506;51.040;3.856;2023-03-31T15:17:00;17.90;99.90
33149;DHT22;19506;51.040;3.856;2023-03-31T15:19:33;17.90;99.90
33149;DHT22;19506;51.040;3.856;2023-03-31T15:22:14;17.90;99.90
33149;DHT22;19506;51.040;3.856;2023-03-31T15:24:41;17.80;99.90
33149;DHT22;19506;51.040;3.856;2023-03-31T15:27:14;17.80;99.90
33149;DHT22;19506;51.040;3.856;2023-03-31T15:29:44;17.80;99.90
33149;DHT22;19506;51.040;3.856;2023-03-31T15:32:28;17.90;99.90
33149;DHT22;19506;51.040;3.856;2023-03-31T15:34:54;18.00;99.90
33149;DHT22;19506;51.040;3.856;2023-03-31T15:37:29;18.20;99.90
33149;DHT22;19506;51.040;3.856;2023-03-31T15:39:59;18.40;99.90
33149;DHT22;19506;51.040;3.856;2023-03-31T15:42:26;18.40;99.90
33149;DHT22;19506;51.040;3.856;2023-03-31T15:44:55;18.50;99.90
33149;DHT22;19506;51.040;3.856;2023-03-31T15:47:28;18.50;99.90
33149;DHT22;19506;51.040;3.856;2023-03-31T15:52:36;18.70;99.90
33149;DHT22;19506;51.040;3.856;2023-03-31T15:55:29;18.70;99.90
33149;DHT22;19506;51.040;3.856;2023-03-31T15:58:00;18.70;99.90
33149;DHT22;19506;51.040;3.856;2023-03-31T16:00:47;18.70;99.90
33149;DHT22;19506;51.040;3.856;2023-03-31T16:03:31;18.80;99.90
33149;DHT22;19506;51.040;3.856;2023-03-31T16:06:16;18.90;99.90
33149;DHT22;19506;51.040;3.856;2023-03-31T16:08:47;19.00;99.90
33149;DHT22;19506;51.040;3.856;2023-03-31T16:11:19;19.10;99.90
33149;DHT22;19506;51.040;3.856;2023-03-31T16:13:50;19.20;99.90
33149;DHT22;19506;51.040;3.856;2023-03-31T16:16:18;19.30;99.90
33149;DHT22;19506;51.040;3.856;2023-03-31T16:18:49;19.40;99.90
33149;DHT22;19506;51.040;3.856;2023-03-31T16:21:21;19.40;99.90
33149;DHT22;19506;51.040;3.856;2023-03-31T16:23:52;19.50;99.90
33149;DHT22;19506;51.040;3.856;2023-03-31T16:26:22;19.50;99.90
33149;DHT22;19506;51.040;3.856;2023-03-31T16:28:50;19.40;99.90
33149;DHT22;19506;51.040;3.856;2023-03-31T16:31:46;19.50;99.90
33149;DHT22;19506;51.040;3.856;2023-03-31T16:34:12;19.50;99.90
33149;DHT22;19506;51.040;3.856;2023-03-31T16:36:38;19.50;99.90
33149;DHT22;19506;51.040;3.856;2023-03-31T16:39:04;19.50;99.90
33149;DHT22;19506;51.040;3.856;2023-03-31T16:41:35;19.50;99.90
33149;DHT22;19506;51.040;3.856;2023-03-31T16:44:02;19.60;99.90
33149;DHT22;19506;51.040;3.856;2023-03-31T16:46:28;19.60;99.90
33149;DHT22;19506;51.040;3.856;2023-03-31T16:48:53;19.60;99.90
33149;DHT22;19506;51.040;3.856;2023-03-31T16:51:19;19.70;99.90
33149;DHT22;19506;51.040;3.856;2023-03-31T16:53:46;19.70;99.90
33149;DHT22;19506;51.040;3.856;2023-03-31T16:56:12;19.60;99.90
33149;DHT22;19506;51.040;3.856;2023-03-31T16:58:39;19.60;99.90
33149;DHT22;19506;51.040;3.856;2023-03-31T17:01:06;19.60;99.90
33149;DHT22;19506;51.040;3.856;2023-03-31T17:03:32;19.50;99.90
33149;DHT22;19506;51.040;3.856;2023-03-31T17:06:04;19.50;99.90
33149;DHT22;19506;51.040;3.856;2023-03-31T17:08:30;19.50;99.90
33149;DHT22;19506;51.040;3.856;2023-03-31T17:11:08;19.50;99.90
33149;DHT22;19506;51.040;3.856;2023-03-31T17:13:37;19.50;99.90
33149;DHT22;19506;51.040;3.856;2023-03-31T17:16:03;19.50;99.90
33149;DHT22;19506;51.040;3.856;2023-03-31T17:18:28;19.60;99.90
33149;DHT22;19506;51.040;3.856;2023-03-31T17:20:54;19.60;99.90
33149;DHT22;19506;51.040;3.856;2023-03-31T17:23:26;19.60;99.90
33149;DHT22;19506;51.040;3.856;2023-03-31T17:25:52;19.60;99.90
33149;DHT22;19506;51.040;3.856;2023-03-31T17:28:18;19.60;99.90
33149;DHT22;19506;51.040;3.856;2023-03-31T17:30:44;19.60;99.90
33149;DHT22;19506;51.040;3.856;2023-03-31T17:33:15;19.60;99.90
33149;DHT22;19506;51.040;3.856;2023-03-31T17:35:41;19.50;99.90
33149;DHT22;19506;51.040;3.856;2023-03-31T17:38:08;19.50;99.90
33149;DHT22;19506;51.040;3.856;2023-03-31T17:40:35;19.50;99.90
33149;DHT22;19506;51.040;3.856;2023-03-31T17:43:01;19.50;99.90
33149;DHT22;19506;51.040;3.856;2023-03-31T17:45:30;19.50;99.90
33149;DHT22;19506;51.040;3.856;2023-03-31T17:47:57;19.50;99.90
33149;DHT22;19506;51.040;3.856;2023-03-31T17:50:24;19.50;99.90
33149;DHT22;19506;51.040;3.856;2023-03-31T17:52:50;19.50;99.90
33149;DHT22;19506;51.040;3.856;2023-03-31T17:55:16;19.50;99.90
33149;DHT22;19506;51.040;3.856;2023-03-31T17:57:42;19.60;99.90
33149;DHT22;19506;51.040;3.856;2023-03-31T18:00:08;19.50;99.90
33149;DHT22;19506;51.040;3.856;2023-03-31T18:02:38;19.50;99.90
33149;DHT22;19506;51.040;3.856;2023-03-31T18:05:05;19.50;99.90
33149;DHT22;19506;51.040;3.856;2023-03-31T18:07:32;19.50;99.90
33149;DHT22;19506;51.040;3.856;2023-03-31T18:09:58;19.50;99.90
33149;DHT22;19506;51.040;3.856;2023-03-31T18:12:23;19.50;99.90
33149;DHT22;19506;51.040;3.856;2023-03-31T18:14:49;19.50;99.90
33149;DHT22;19506;51.040;3.856;2023-03-31T18:17:16;19.50;99.90
33149;DHT22;19506;51.040;3.856;2023-03-31T18:19:43;19.50;99.90
33149;DHT22;19506;51.040;3.856;2023-03-31T18:22:09;19.50;99.90
33149;DHT22;19506;51.040;3.856;2023-03-31T18:24:35;19.50;99.90
33149;DHT22;19506;51.040;3.856;2023-03-31T18:27:03;19.40;99.90
33149;DHT22;19506;51.040;3.856;2023-03-31T18:29:29;19.40;99.90
33149;DHT22;19506;51.040;3.856;2023-03-31T18:31:54;19.40;99.90
33149;DHT22;19506;51.040;3.856;2023-03-31T18:34:20;19.40;99.90
33149;DHT22;19506;51.040;3.856;2023-03-31T18:36:46;19.50;99.90